createdAt,value
2019-05-12T00:02:07.584Z,3.75
2019-05-12T00:04:34.081Z,3.75
2019-05-12T00:07:00.792Z,4.25
2019-05-12T00:09:28.429Z,4.40
2019-05-12T00:11:55.348Z,4.67
2019-05-12T00:14:22.035Z,4.08
2019-05-12T00:16:49.183Z,4.50
2019-05-12T00:19:17.942Z,4.55
2019-05-12T00:21:44.628Z,4.62
2019-05-12T00:24:11.346Z,4.25
2019-05-12T00:26:38.649Z,4.37
2019-05-12T00:29:07.552Z,4.22
2019-05-12T00:31:34.203Z,4.75
2019-05-12T00:34:01.180Z,4.30
2019-05-12T00:36:29.269Z,4.45
2019-05-12T00:38:58.018Z,3.65
2019-05-12T00:41:24.770Z,4.22
2019-05-12T00:43:51.734Z,4.37
2019-05-12T00:46:18.538Z,4.00
2019-05-12T00:48:45.201Z,3.92
2019-05-12T00:51:11.939Z,4.22
2019-05-12T00:53:43.133Z,3.90
2019-05-12T00:56:08.450Z,4.40
2019-05-12T00:58:35.312Z,3.50
2019-05-12T01:01:22.704Z,3.90
2019-05-12T01:03:49.493Z,4.55
2019-05-12T01:06:17.793Z,4.12
2019-05-12T01:08:44.605Z,4.58
2019-05-12T01:11:12.664Z,3.83
2019-05-12T01:13:39.430Z,4.28
2019-05-12T01:16:08.088Z,4.10
2019-05-12T01:18:35.220Z,4.42
2019-05-12T01:21:01.918Z,4.70
2019-05-12T01:23:28.689Z,3.87
2019-05-12T01:25:58.292Z,4.65
2019-05-12T01:28:24.222Z,4.10
2019-05-12T01:30:53.005Z,4.42
2019-05-12T01:33:19.707Z,4.08
2019-05-12T01:35:48.308Z,4.42
2019-05-12T01:38:15.205Z,4.33
2019-05-12T01:40:41.897Z,3.90
2019-05-12T01:43:09.056Z,3.83
2019-05-12T01:45:37.985Z,4.22
2019-05-12T01:48:04.493Z,4.80
2019-05-12T01:50:31.269Z,4.22
2019-05-12T01:52:59.037Z,5.00
2019-05-12T01:55:28.073Z,4.42
2019-05-12T01:57:54.643Z,4.65
2019-05-12T02:00:21.666Z,4.15
2019-05-12T02:02:48.363Z,4.47
2019-05-12T02:05:15.148Z,4.33
2019-05-12T02:07:48.050Z,5.45
2019-05-12T02:10:17.817Z,4.25
2019-05-12T02:12:44.005Z,4.75
2019-05-12T02:15:10.817Z,4.47
2019-05-12T02:17:39.122Z,5.50
2019-05-12T02:20:07.868Z,5.42
2019-05-12T02:22:34.581Z,6.37
2019-05-12T02:25:01.360Z,6.00
2019-05-12T02:27:28.414Z,5.40
2019-05-12T02:30:13.030Z,5.60
2019-05-12T02:32:48.454Z,5.83
2019-05-12T02:35:08.801Z,5.75
2019-05-12T02:37:36.069Z,5.17
2019-05-12T02:40:06.898Z,5.62
2019-05-12T02:45:05.215Z,5.70
2019-05-12T02:47:34.461Z,5.10
2019-05-12T02:50:05.348Z,5.30
2019-05-12T02:52:34.724Z,5.75
2019-05-12T02:55:05.788Z,5.80
2019-05-12T02:57:34.351Z,5.83
2019-05-12T03:02:30.042Z,5.58
2019-05-12T03:05:19.777Z,5.30
2019-05-12T03:07:48.453Z,5.37
2019-05-12T03:10:15.319Z,5.33
2019-05-12T03:12:44.975Z,5.30
2019-05-12T03:15:14.853Z,4.87
2019-05-12T03:17:39.559Z,5.85
2019-05-12T03:20:06.447Z,5.65
2019-05-12T03:22:35.253Z,5.50
2019-05-12T03:25:13.396Z,5.85
2019-05-12T03:27:30.276Z,5.78
2019-05-12T03:29:56.860Z,5.70
2019-05-12T03:32:27.570Z,5.97
2019-05-12T03:34:57.365Z,5.50
2019-05-12T03:37:21.060Z,6.28
2019-05-12T03:39:47.925Z,6.10
2019-05-12T03:42:14.680Z,5.60
2019-05-12T03:44:44.449Z,6.17
2019-05-12T03:47:10.296Z,6.83
2019-05-12T03:49:37.047Z,5.45
2019-05-12T03:52:05.081Z,5.55
2019-05-12T03:54:34.962Z,5.62
2019-05-12T03:57:00.785Z,5.92
2019-05-12T03:59:27.483Z,5.22
2019-05-12T04:01:55.144Z,5.55
2019-05-12T04:04:24.471Z,5.58
2019-05-12T04:06:50.654Z,5.90
2019-05-12T04:09:17.216Z,6.03
2019-05-12T04:11:44.501Z,6.10
2019-05-12T04:14:14.515Z,5.65
2019-05-12T04:16:39.980Z,6.35
2019-05-12T04:19:06.670Z,6.17
2019-05-12T04:21:34.997Z,5.55
2019-05-12T04:24:05.061Z,6.20
2019-05-12T04:26:30.645Z,6.12
2019-05-12T04:28:57.230Z,5.53
2019-05-12T04:31:25.063Z,5.47
2019-05-12T04:33:54.725Z,5.75
2019-05-12T04:36:20.617Z,5.47
2019-05-12T04:38:47.410Z,5.85
2019-05-12T04:41:14.700Z,6.60
2019-05-12T04:43:44.539Z,5.53
2019-05-12T04:46:10.315Z,5.12
2019-05-12T04:48:36.885Z,5.72
2019-05-12T04:51:05.040Z,4.40
2019-05-12T04:53:34.928Z,4.20
2019-05-12T04:56:10.751Z,4.28
2019-05-12T04:58:29.233Z,3.87
2019-05-12T05:00:55.995Z,4.40
2019-05-12T05:03:24.709Z,4.05
2019-05-12T05:05:51.369Z,4.00
2019-05-12T05:08:19.754Z,4.35
2019-05-12T05:10:46.518Z,4.53
2019-05-12T05:13:14.974Z,4.30
2019-05-12T05:15:43.993Z,4.78
2019-05-12T05:18:10.374Z,4.92
2019-05-12T05:20:37.055Z,5.08
2019-05-12T05:23:03.935Z,4.85
2019-05-12T05:25:30.916Z,4.53
2019-05-12T05:27:57.684Z,3.65
2019-05-12T05:30:24.419Z,4.53
2019-05-12T05:32:51.034Z,3.80
2019-05-12T05:35:17.717Z,3.67
2019-05-12T05:37:44.430Z,3.40
2019-05-12T05:40:13.865Z,2.92
2019-05-12T05:42:39.902Z,3.22
2019-05-12T05:45:10.031Z,3.37
2019-05-12T05:47:35.486Z,2.98
2019-05-12T05:50:04.634Z,3.08
2019-05-12T05:52:38.516Z,3.00
2019-05-12T05:54:59.652Z,3.15
2019-05-12T05:57:29.755Z,3.65
2019-05-12T05:59:54.703Z,2.80
2019-05-12T06:02:23.163Z,3.00
2019-05-12T06:04:53.215Z,2.67
2019-05-12T06:07:23.912Z,2.62
2019-05-12T06:09:47.386Z,2.65
2019-05-12T06:12:14.215Z,2.83
2019-05-12T06:14:41.058Z,3.12
2019-05-12T06:17:07.778Z,2.65
2019-05-12T06:19:34.391Z,2.35
2019-05-12T06:22:04.032Z,1.90
2019-05-12T06:24:33.338Z,2.30
2019-05-12T06:27:00.723Z,2.22
2019-05-12T06:29:27.619Z,2.45
2019-05-12T06:31:54.378Z,2.20
2019-05-12T06:34:21.251Z,2.02
2019-05-12T06:36:47.822Z,2.00
2019-05-12T06:39:19.068Z,2.02
2019-05-12T06:41:44.413Z,1.70
2019-05-12T06:44:14.988Z,1.77
2019-05-12T06:46:39.960Z,1.87
2019-05-12T06:49:12.762Z,1.90
2019-05-12T06:51:35.300Z,2.08
2019-05-12T06:54:07.421Z,1.70
2019-05-12T06:56:30.636Z,2.58
2019-05-12T06:59:01.090Z,2.00
2019-05-12T07:01:25.913Z,2.02
2019-05-12T07:03:53.361Z,1.90
2019-05-12T07:06:20.381Z,1.87
2019-05-12T07:08:47.062Z,1.67
2019-05-12T07:11:14.310Z,1.80
2019-05-12T07:13:43.840Z,1.95
2019-05-12T07:16:16.668Z,2.30
2019-05-12T07:18:44.846Z,2.05
2019-05-12T07:21:17.845Z,2.02
2019-05-12T07:23:40.835Z,1.50
2019-05-12T07:26:17.599Z,2.20
2019-05-12T07:28:40.156Z,1.65
2019-05-12T07:31:04.871Z,1.90
2019-05-12T07:33:32.837Z,1.72
2019-05-12T07:36:05.824Z,2.08
2019-05-12T07:38:31.420Z,1.98
2019-05-12T07:41:00.738Z,2.27
2019-05-12T07:43:27.975Z,1.77
2019-05-12T07:46:02.167Z,2.10
2019-05-12T07:50:58.464Z,1.62
2019-05-12T07:53:20.285Z,2.08
2019-05-12T07:55:49.361Z,1.82
2019-05-12T07:58:19.208Z,1.70
2019-05-12T08:00:44.460Z,1.98
2019-05-12T08:03:16.025Z,1.85
2019-05-12T08:05:39.752Z,1.50
2019-05-12T08:08:10.689Z,1.60
2019-05-12T08:10:35.232Z,1.25
2019-05-12T08:13:04.098Z,1.77
2019-05-12T08:15:30.585Z,1.77
2019-05-12T08:17:59.527Z,1.35
2019-05-12T08:20:25.747Z,1.62
2019-05-12T08:22:54.144Z,1.22
2019-05-12T08:25:27.401Z,1.75
2019-05-12T08:27:51.969Z,1.60
2019-05-12T08:30:24.025Z,1.70
2019-05-12T08:32:56.351Z,1.70
2019-05-12T08:35:29.613Z,1.30
2019-05-12T08:37:48.309Z,1.70
2019-05-12T08:40:15.627Z,1.70
2019-05-12T08:42:43.673Z,1.67
2019-05-12T08:45:15.286Z,1.65
2019-05-12T08:47:39.492Z,1.30
2019-05-12T08:50:06.694Z,1.72
2019-05-12T08:52:37.248Z,1.72
2019-05-12T08:55:04.277Z,1.75
2019-05-12T08:57:32.581Z,1.92
2019-05-12T09:00:02.719Z,1.60
2019-05-12T09:02:28.188Z,1.37
2019-05-12T09:04:55.763Z,1.75
2019-05-12T09:07:24.279Z,1.32
2019-05-12T09:09:53.351Z,1.45
2019-05-12T09:12:23.347Z,1.30
2019-05-12T09:14:50.094Z,1.30
2019-05-12T09:17:16.775Z,1.72
2019-05-12T09:19:43.715Z,1.55
2019-05-12T09:22:20.404Z,2.33
2019-05-12T09:24:39.247Z,1.40
2019-05-12T09:27:08.806Z,1.62
2019-05-12T09:29:34.709Z,1.02
2019-05-12T09:32:07.359Z,1.20
2019-05-12T09:34:30.171Z,1.30
2019-05-12T09:36:59.532Z,2.22
2019-05-12T09:39:25.518Z,2.00
2019-05-12T09:41:54.813Z,1.37
2019-05-12T09:44:26.340Z,2.02
2019-05-12T09:46:49.408Z,1.75
2019-05-12T09:49:16.177Z,1.60
2019-05-12T09:51:45.774Z,1.62
2019-05-12T09:54:13.392Z,1.87
2019-05-12T09:56:41.299Z,2.10
2019-05-12T09:59:18.095Z,2.52
2019-05-12T10:01:39.687Z,2.25
2019-05-12T10:04:10.371Z,2.02
2019-05-12T10:06:35.376Z,2.80
2019-05-12T10:09:08.953Z,1.60
2019-05-12T10:11:33.212Z,2.00
2019-05-12T10:14:00.282Z,1.42
2019-05-12T10:16:28.492Z,1.50
2019-05-12T10:18:56.466Z,1.90
2019-05-12T10:21:23.770Z,1.42
2019-05-12T10:23:51.517Z,1.77
2019-05-12T10:26:41.219Z,2.47
2019-05-12T10:29:17.460Z,2.30
2019-05-12T10:31:39.371Z,3.33
2019-05-12T10:34:20.824Z,1.80
2019-05-12T10:36:49.150Z,1.98
2019-05-12T10:39:16.516Z,1.50
2019-05-12T10:41:44.442Z,1.80
2019-05-12T10:44:13.700Z,1.62
2019-05-12T10:46:42.373Z,1.98
2019-05-12T10:49:08.500Z,1.80
2019-05-12T10:51:35.182Z,1.27
2019-05-12T10:54:12.119Z,1.70
2019-05-12T10:56:31.426Z,1.55
2019-05-12T10:58:58.089Z,1.30
2019-05-12T11:01:24.785Z,1.15
2019-05-12T11:03:52.281Z,1.37
2019-05-12T11:06:19.204Z,1.10
2019-05-12T11:08:47.309Z,1.12
2019-05-12T11:11:15.587Z,1.50
2019-05-12T11:13:46.201Z,1.32
2019-05-12T11:16:14.005Z,1.35
2019-05-12T11:18:39.653Z,1.12
2019-05-12T11:21:06.246Z,1.42
2019-05-12T11:23:34.504Z,1.22
2019-05-12T11:26:03.721Z,1.35
2019-05-12T11:28:30.279Z,1.10
2019-05-12T11:30:58.919Z,1.32
2019-05-12T11:33:25.685Z,1.30
2019-05-12T11:35:54.153Z,1.15
2019-05-12T11:38:21.147Z,1.32
2019-05-12T11:40:47.838Z,1.37
2019-05-12T11:43:14.671Z,1.17
2019-05-12T11:45:41.420Z,0.85
2019-05-12T11:48:10.170Z,1.10
2019-05-12T11:50:40.362Z,0.70
2019-05-12T11:53:05.291Z,1.07
2019-05-12T11:55:34.669Z,1.25
2019-05-12T11:58:06.709Z,1.20
2019-05-12T12:00:33.460Z,1.10
2019-05-12T12:03:03.819Z,1.02
2019-05-12T12:05:28.447Z,0.95
2019-05-12T12:07:56.119Z,1.82
2019-05-12T12:10:23.474Z,1.05
2019-05-12T12:12:50.315Z,1.00
2019-05-12T12:15:20.297Z,1.00
2019-05-12T12:17:45.910Z,1.30
2019-05-12T12:20:22.661Z,1.00
2019-05-12T12:22:46.461Z,1.00
2019-05-12T12:25:15.832Z,0.98
2019-05-12T12:27:44.288Z,1.20
2019-05-12T12:30:18.835Z,1.20
2019-05-12T12:32:40.908Z,1.00
2019-05-12T12:35:11.898Z,1.15
2019-05-12T12:37:36.388Z,0.90
2019-05-12T12:40:04.263Z,1.20
2019-05-12T12:42:36.980Z,1.10
2019-05-12T12:45:04.251Z,0.90
2019-05-12T12:47:38.018Z,1.10
2019-05-12T12:49:59.709Z,1.00
2019-05-12T12:52:26.474Z,1.05
2019-05-12T12:54:54.326Z,0.98
2019-05-12T12:57:21.140Z,1.15
2019-05-12T12:59:52.842Z,1.32
2019-05-12T13:02:24.711Z,1.20
2019-05-12T13:04:53.731Z,1.00
2019-05-12T13:07:20.214Z,1.10
2019-05-12T13:09:46.806Z,1.30
2019-05-12T13:12:15.789Z,1.30
2019-05-12T13:14:44.346Z,1.50
2019-05-12T13:17:10.807Z,1.42
2019-05-12T13:19:37.419Z,0.90
2019-05-12T13:22:08.966Z,1.05
2019-05-12T13:24:33.614Z,0.98
2019-05-12T13:27:03.984Z,1.00
2019-05-12T13:29:38.177Z,1.10
2019-05-12T13:31:59.680Z,1.40
2019-05-12T13:34:28.882Z,0.90
2019-05-12T13:36:55.019Z,1.02
2019-05-12T13:39:24.113Z,0.98
2019-05-12T13:41:56.251Z,1.20
2019-05-12T13:44:19.388Z,1.00
2019-05-12T13:46:48.883Z,0.90
2019-05-12T13:49:14.694Z,1.30
2019-05-12T13:51:43.044Z,1.07
2019-05-12T13:54:10.100Z,1.50
2019-05-12T13:56:36.792Z,1.30
2019-05-12T13:59:04.194Z,1.30
2019-05-12T14:01:39.657Z,1.50
2019-05-12T14:03:59.860Z,3.22
2019-05-12T14:06:32.198Z,1.37
2019-05-12T14:08:55.272Z,2.12
2019-05-12T14:11:23.850Z,1.80
2019-05-12T14:13:50.616Z,10.08
2019-05-12T14:16:17.460Z,25.82
2019-05-12T14:18:44.428Z,42.25
2019-05-12T14:21:13.977Z,5.00
2019-05-12T14:23:43.468Z,6.20
2019-05-12T14:26:09.533Z,1.82
2019-05-12T14:28:39.576Z,1.60
2019-05-12T14:31:04.568Z,1.47
2019-05-12T14:33:35.724Z,1.60
2019-05-12T14:35:59.703Z,1.20
2019-05-12T14:38:29.687Z,1.40
2019-05-12T14:40:55.033Z,1.10
2019-05-12T14:43:23.971Z,1.10
2019-05-12T14:45:50.476Z,1.00
2019-05-12T14:48:17.252Z,1.40
2019-05-12T14:50:44.285Z,1.10
2019-05-12T14:53:11.061Z,0.90
2019-05-12T14:55:38.604Z,0.90
2019-05-12T14:58:09.140Z,0.98
2019-05-12T15:00:34.332Z,1.10
2019-05-12T15:03:05.509Z,1.05
2019-05-12T15:05:29.740Z,0.90
2019-05-12T15:08:00.216Z,0.93
2019-05-12T15:10:25.254Z,1.00
2019-05-12T15:12:54.200Z,1.10
2019-05-12T15:15:20.904Z,0.98
2019-05-12T15:17:47.676Z,1.05
2019-05-12T15:20:14.481Z,0.95
2019-05-12T15:22:45.216Z,0.88
2019-05-12T15:25:09.942Z,1.00
2019-05-12T15:27:44.768Z,0.82
2019-05-12T15:30:19.018Z,1.10
2019-05-12T15:32:34.954Z,1.22
2019-05-12T15:35:01.769Z,1.12
2019-05-12T15:37:28.933Z,1.10
2019-05-12T15:39:56.922Z,1.20
2019-05-12T15:42:23.760Z,1.00
2019-05-12T15:44:50.425Z,1.07
2019-05-12T15:47:17.254Z,1.45
2019-05-12T15:49:44.309Z,1.50
2019-05-12T15:52:14.019Z,1.50
2019-05-12T15:54:45.758Z,1.00
2019-05-12T15:57:08.747Z,1.60
2019-05-12T15:59:35.432Z,1.60
2019-05-12T16:02:12.333Z,1.40
2019-05-12T16:04:34.671Z,1.15
2019-05-12T16:06:59.395Z,1.60
2019-05-12T16:09:26.206Z,1.20
2019-05-12T16:11:52.894Z,1.30
2019-05-12T16:14:19.463Z,1.50
2019-05-12T16:16:47.129Z,1.35
2019-05-12T16:19:14.714Z,1.87
2019-05-12T16:21:45.322Z,1.47
2019-05-12T16:24:11.313Z,1.87
2019-05-12T16:26:42.991Z,2.67
2019-05-12T16:29:07.669Z,2.30
2019-05-12T16:31:39.362Z,1.90
2019-05-12T16:34:06.047Z,1.32
2019-05-12T16:36:33.715Z,1.22
2019-05-12T16:39:00.393Z,1.77
2019-05-12T16:41:29.785Z,1.20
2019-05-12T16:43:55.672Z,1.67
2019-05-12T16:46:23.524Z,2.08
2019-05-12T16:48:54.557Z,1.57
2019-05-12T16:51:19.061Z,1.57
2019-05-12T16:53:45.841Z,1.40
2019-05-12T16:56:14.768Z,1.62
2019-05-12T16:58:43.380Z,1.35
2019-05-12T17:01:09.765Z,1.30
2019-05-12T17:03:36.506Z,1.15
2019-05-12T17:06:03.661Z,4.05
2019-05-12T17:08:30.525Z,3.62
2019-05-12T17:11:15.157Z,1.90
2019-05-12T17:13:25.913Z,1.55
2019-05-12T17:15:55.388Z,1.62
2019-05-12T17:18:24.419Z,1.50
2019-05-12T17:20:51.139Z,1.05
2019-05-12T17:23:18.008Z,1.40
2019-05-12T17:25:44.683Z,1.17
2019-05-12T17:28:13.256Z,0.90
2019-05-12T17:30:40.118Z,1.22
2019-05-12T17:33:06.866Z,0.93
2019-05-12T17:35:34.836Z,1.30
2019-05-12T17:38:04.081Z,1.10
2019-05-12T17:40:30.586Z,0.80
2019-05-12T17:43:05.625Z,0.90
2019-05-12T17:45:26.096Z,1.05
2019-05-12T17:47:56.905Z,1.20
2019-05-12T17:50:21.331Z,1.37
2019-05-12T17:52:50.564Z,0.88
2019-05-12T17:55:16.759Z,1.47
2019-05-12T17:57:44.235Z,0.90
2019-05-12T18:00:11.332Z,1.17
2019-05-12T18:02:38.011Z,1.07
2019-05-12T18:05:07.674Z,0.80
2019-05-12T18:07:34.349Z,1.20
2019-05-12T18:10:01.188Z,1.05
2019-05-12T18:12:36.672Z,0.68
2019-05-12T18:14:56.546Z,1.10
2019-05-12T18:17:23.732Z,0.90
2019-05-12T18:19:59.044Z,1.55
2019-05-12T18:22:20.482Z,1.10
2019-05-12T18:24:50.745Z,1.32
2019-05-12T18:27:15.777Z,1.57
2019-05-12T18:29:44.168Z,1.00
2019-05-12T18:32:13.635Z,1.30
2019-05-12T18:34:39.955Z,0.90
2019-05-12T18:37:06.756Z,1.10
2019-05-12T18:39:34.400Z,0.90
2019-05-12T18:42:03.566Z,1.17
2019-05-12T18:44:31.604Z,1.00
2019-05-12T18:46:58.539Z,1.25
2019-05-12T18:49:25.228Z,1.30
2019-05-12T18:51:55.054Z,0.88
2019-05-12T18:54:20.727Z,1.22
2019-05-12T18:56:52.499Z,1.40
2019-05-12T18:59:16.536Z,1.35
2019-05-12T19:01:43.687Z,1.47
2019-05-12T19:04:10.584Z,1.52
2019-05-12T19:06:37.246Z,0.85
2019-05-12T19:09:06.526Z,1.30
2019-05-12T19:11:41.789Z,1.05
2019-05-12T19:14:04.192Z,1.77
2019-05-12T19:16:30.532Z,1.17
2019-05-12T19:18:57.405Z,1.20
2019-05-12T19:21:24.138Z,1.20
2019-05-12T19:23:50.722Z,1.32
2019-05-12T19:26:17.592Z,1.20
2019-05-12T19:28:52.951Z,1.20
2019-05-12T19:31:14.242Z,1.42
2019-05-12T19:33:44.016Z,1.10
2019-05-12T19:36:09.877Z,1.37
2019-05-12T19:38:36.953Z,1.35
2019-05-12T19:41:04.646Z,1.22
2019-05-12T19:43:33.849Z,1.15
2019-05-12T19:46:03.403Z,0.90
2019-05-12T19:48:28.962Z,1.07
2019-05-12T19:50:57.132Z,1.00
2019-05-12T19:53:24.213Z,1.37
2019-05-12T19:55:50.863Z,1.40
2019-05-12T19:58:17.573Z,1.22
2019-05-12T20:00:44.291Z,1.02
2019-05-12T20:03:13.686Z,1.35
2019-05-12T20:05:39.683Z,1.50
2019-05-12T20:08:06.442Z,1.10
2019-05-12T20:10:38.059Z,1.50
2019-05-12T20:13:03.937Z,1.40
2019-05-12T20:15:36.807Z,1.30
2019-05-12T20:17:59.492Z,1.27
2019-05-12T20:20:35.781Z,1.05
2019-05-12T20:22:54.849Z,1.12
2019-05-12T20:25:23.667Z,1.22
2019-05-12T20:27:56.141Z,1.65
2019-05-12T20:30:21.085Z,1.17
2019-05-12T20:32:47.640Z,1.25
2019-05-12T20:35:17.033Z,1.77
2019-05-12T20:37:53.123Z,1.40
2019-05-12T20:40:14.293Z,1.05
2019-05-12T20:42:44.189Z,1.12
2019-05-12T20:45:09.667Z,1.35
2019-05-12T20:47:39.054Z,0.98
2019-05-12T20:50:06.826Z,1.02
2019-05-12T20:52:34.203Z,1.00
2019-05-12T20:55:03.509Z,1.30
2019-05-12T20:57:29.660Z,1.22
2019-05-12T20:59:58.237Z,0.90
2019-05-12T21:02:28.273Z,1.30
2019-05-12T21:05:00.847Z,1.12
2019-05-12T21:07:26.828Z,1.20
2019-05-12T21:09:51.969Z,1.10
2019-05-12T21:12:24.065Z,1.20
2019-05-12T21:14:51.855Z,1.45
2019-05-12T21:17:19.153Z,1.25
2019-05-12T21:19:55.698Z,1.47
2019-05-12T21:22:14.545Z,1.37
2019-05-12T21:24:43.746Z,1.47
2019-05-12T21:27:17.916Z,1.40
2019-05-12T21:29:38.897Z,1.57
2019-05-12T21:32:12.290Z,1.27
2019-05-12T21:34:35.429Z,1.53
2019-05-12T21:37:04.635Z,1.92
2019-05-12T21:39:30.787Z,1.20
2019-05-12T21:41:57.545Z,1.22
2019-05-12T21:44:24.633Z,1.32
2019-05-12T21:46:59.412Z,1.32
2019-05-12T21:49:20.041Z,2.55
2019-05-12T21:51:50.387Z,1.47
2019-05-12T21:54:15.470Z,2.12
2019-05-12T21:56:44.722Z,1.65
2019-05-12T21:59:12.832Z,1.87
2019-05-12T22:01:45.511Z,1.82
2019-05-12T22:04:11.559Z,1.75
2019-05-12T22:06:40.279Z,2.27
2019-05-12T22:09:07.279Z,1.87
2019-05-12T22:11:42.237Z,2.17
2019-05-12T22:14:07.341Z,2.17
2019-05-12T22:16:43.281Z,2.45
2019-05-12T22:21:43.616Z,1.77
2019-05-12T22:24:06.224Z,1.70
2019-05-12T22:26:39.638Z,2.12
2019-05-12T22:29:01.250Z,2.05
2019-05-12T22:31:27.832Z,1.80
2019-05-12T22:33:56.385Z,3.45
2019-05-12T22:36:26.947Z,2.05
2019-05-12T22:39:00.524Z,1.85
2019-05-12T22:41:20.767Z,2.80
2019-05-12T22:43:47.453Z,1.82
2019-05-12T22:46:16.515Z,1.82
2019-05-12T22:48:45.243Z,1.92
2019-05-12T22:51:23.142Z,2.52
2019-05-12T22:53:40.716Z,2.22
2019-05-12T22:56:12.137Z,2.30
2019-05-12T22:58:35.994Z,2.52
2019-05-12T23:01:05.174Z,2.10
2019-05-12T23:03:31.585Z,2.17
2019-05-12T23:06:01.533Z,2.10
2019-05-12T23:08:26.651Z,2.50
2019-05-12T23:10:55.649Z,2.52
2019-05-12T23:13:23.828Z,2.37
2019-05-12T23:15:50.615Z,2.35
2019-05-12T23:18:25.229Z,2.50
2019-05-12T23:20:47.926Z,1.98
2019-05-12T23:23:18.707Z,2.22
2019-05-12T23:25:44.117Z,2.35
2019-05-12T23:28:11.084Z,2.55
2019-05-12T23:30:37.882Z,2.60
2019-05-12T23:33:04.585Z,2.50
2019-05-12T23:35:37.761Z,2.08
2019-05-12T23:38:00.107Z,2.50
2019-05-12T23:40:26.882Z,2.60
2019-05-12T23:42:53.683Z,2.62
2019-05-12T23:45:20.483Z,3.33
2019-05-12T23:47:47.095Z,2.75
2019-05-12T23:50:14.348Z,2.60
2019-05-12T23:52:43.750Z,2.27
2019-05-12T23:55:10.232Z,3.00
2019-05-12T23:57:36.899Z,3.02
